Time;durP1;ratioP1;P1;durP2;ratioP2;P2;SDS_P1;SDS_P2;PMS_P1;PMS_P2;Temp;Humidity;BMP_temperature;BMP_pressure;BME280_temperature;BME280_humidity;BME280_pressure;Samples;Min_cycle;Max_cycle;Signal;HPM_P1;HPM_P2
2023/07/24 00:02:21;;;;;;;4.77;2.87;;;;;;;19.08;100.00;99681.00;4980571;28;20488;-68
2023/07/24 00:04:48;;;;;;;3.73;2.60;;;;;;;19.05;100.00;99673.06;4988224;28;20278;-69
2023/07/24 00:07:14;;;;;;;3.50;2.50;;;;;;;19.03;100.00;99669.53;4994450;28;20660;-69
2023/07/24 00:09:41;;;;;;;4.20;2.40;;;;;;;19.16;100.00;99666.44;4992819;28;20680;-68
2023/07/24 00:12:07;;;;;;;4.13;2.70;;;;;;;19.17;100.00;99663.72;4985811;28;20204;-69
2023/07/24 00:14:34;;;;;;;4.53;2.50;;;;;;;19.16;100.00;99661.94;4975804;28;20715;-69
2023/07/24 00:17:00;;;;;;;8.90;4.23;;;;;;;19.21;100.00;99656.44;4984662;28;20205;-69
2023/07/24 00:19:27;;;;;;;4.27;2.63;;;;;;;19.18;100.00;99661.91;4996995;28;20282;-69
2023/07/24 00:21:53;;;;;;;3.53;2.43;;;;;;;19.08;100.00;99655.97;4985731;28;20296;-69
2023/07/24 00:24:19;;;;;;;3.40;2.50;;;;;;;19.00;100.00;99648.19;4980672;28;20237;-69
2023/07/24 00:26:46;;;;;;;3.27;2.40;;;;;;;18.98;100.00;99651.84;4985468;28;20251;-69
2023/07/24 00:29:12;;;;;;;5.70;2.80;;;;;;;19.12;100.00;99657.63;4990164;28;20691;-68
2023/07/24 00:31:39;;;;;;;3.33;2.37;;;;;;;19.11;100.00;99645.13;4989457;28;20304;-69
2023/07/24 00:34:05;;;;;;;4.53;2.60;;;;;;;19.10;100.00;99649.63;4993592;28;20234;-68
2023/07/24 00:36:31;;;;;;;3.33;2.40;;;;;;;19.08;100.00;99656.84;4983154;28;20208;-69
2023/07/24 00:38:58;;;;;;;4.87;2.70;;;;;;;19.12;100.00;99660.31;4981939;28;20287;-69
2023/07/24 00:41:25;;;;;;;3.60;2.27;;;;;;;19.02;100.00;99654.38;4982027;28;20207;-69
2023/07/24 00:43:51;;;;;;;4.40;2.57;;;;;;;18.94;100.00;99650.19;4980603;28;20235;-68
2023/07/24 00:46:18;;;;;;;4.60;2.53;;;;;;;19.04;100.00;99636.41;4991045;28;20613;-69
2023/07/24 00:48:47;;;;;;;3.70;2.43;;;;;;;18.98;100.00;99635.75;4995707;28;20196;-69
2023/07/24 00:51:13;;;;;;;4.40;2.50;;;;;;;18.91;100.00;99642.25;4985759;28;20197;-69
2023/07/24 00:53:39;;;;;;;3.77;2.30;;;;;;;18.90;100.00;99643.16;4979165;28;20221;-69
2023/07/24 00:56:06;;;;;;;2.57;2.10;;;;;;;18.88;100.00;99645.03;4984302;28;20290;-69
2023/07/24 00:58:36;;;;;;;3.37;2.30;;;;;;;18.73;100.00;99636.53;4987036;28;20207;-69
2023/07/24 01:01:03;;;;;;;5.80;2.60;;;;;;;18.64;100.00;99652.91;4994091;28;20266;-68
2023/07/24 01:03:33;;;;;;;3.77;2.47;;;;;;;18.56;100.00;99648.69;4981993;28;20320;-69
2023/07/24 01:06:03;;;;;;;3.33;2.43;;;;;;;18.42;100.00;99641.06;4982763;28;20628;-69
2023/07/24 01:08:29;;;;;;;3.60;2.40;;;;;;;18.51;100.00;99642.59;4984272;28;20254;-69
2023/07/24 01:10:59;;;;;;;3.67;2.63;;;;;;;18.45;100.00;99640.97;4982360;28;20197;-69
2023/07/24 01:13:31;;;;;;;2.97;2.20;;;;;;;18.35;100.00;99631.44;4988749;28;20225;-69
2023/07/24 01:16:07;;;;;;;3.47;2.10;;;;;;;18.29;100.00;99623.59;4981463;28;20590;-69
2023/07/24 01:18:36;;;;;;;4.13;2.20;;;;;;;18.50;100.00;99625.63;4982069;28;20201;-69
2023/07/24 01:21:05;;;;;;;4.10;2.40;;;;;;;18.57;100.00;99631.66;4991763;28;20193;-68
2023/07/24 01:23:57;;;;;;;4.67;2.47;;;;;;;18.50;100.00;99601.50;4992296;28;20299;-69
2023/07/24 01:26:24;;;;;;;2.87;2.10;;;;;;;18.46;100.00;99605.19;4989955;28;20300;-69
2023/07/24 01:28:51;;;;;;;3.80;2.30;;;;;;;18.52;100.00;99601.44;4988100;28;20205;-69
2023/07/24 01:31:17;;;;;;;3.80;2.20;;;;;;;18.47;100.00;99593.53;4982313;28;20689;-69
2023/07/24 01:33:44;;;;;;;5.33;2.70;;;;;;;18.48;100.00;99587.25;4990132;28;20705;-69
2023/07/24 01:36:13;;;;;;;4.83;2.20;;;;;;;18.47;100.00;99596.22;4987059;28;20197;-69
2023/07/24 01:38:40;;;;;;;3.57;2.30;;;;;;;18.46;100.00;99595.34;4984437;28;20576;-69
2023/07/24 01:41:07;;;;;;;3.07;2.17;;;;;;;18.45;100.00;99598.97;4988537;28;20233;-68
2023/07/24 01:43:34;;;;;;;3.47;2.33;;;;;;;18.46;100.00;99605.19;4983481;28;20217;-69
2023/07/24 01:46:00;;;;;;;4.73;2.20;;;;;;;18.45;100.00;99600.75;4990430;28;20716;-69
2023/07/24 01:48:26;;;;;;;3.57;2.20;;;;;;;18.46;100.00;99594.47;4981973;28;20259;-69
2023/07/24 01:50:53;;;;;;;4.40;2.60;;;;;;;18.45;100.00;99588.22;4980164;28;20451;-69
2023/07/24 01:53:19;;;;;;;3.33;2.17;;;;;;;18.46;100.00;99584.63;4994344;28;20297;-69
2023/07/24 01:55:46;;;;;;;4.33;2.33;;;;;;;18.57;100.00;99576.22;4988915;28;20193;-69
2023/07/24 01:58:12;;;;;;;3.60;2.37;;;;;;;18.52;100.00;99567.44;4987353;28;20205;-69
2023/07/24 02:00:38;;;;;;;3.97;2.80;;;;;;;18.54;100.00;99568.28;4995542;28;20430;-69
2023/07/24 02:03:05;;;;;;;4.30;2.40;;;;;;;18.68;100.00;99557.13;4989752;28;20229;-69
2023/07/24 02:05:31;;;;;;;4.63;2.40;;;;;;;18.66;100.00;99537.53;4985606;28;20271;-69
2023/07/24 02:07:58;;;;;;;3.40;2.40;;;;;;;18.63;100.00;99545.69;4985778;28;20202;-69
2023/07/24 02:10:24;;;;;;;5.07;2.30;;;;;;;18.71;100.00;99543.59;4988278;28;20213;-69
2023/07/24 02:12:51;;;;;;;6.10;2.53;;;;;;;18.79;100.00;99534.38;4988800;28;20201;-68
2023/07/24 02:15:17;;;;;;;4.10;2.17;;;;;;;18.76;100.00;99538.97;4992708;28;20670;-68
2023/07/24 02:17:43;;;;;;;3.93;2.40;;;;;;;18.69;100.00;99532.94;4988099;28;20273;-68
2023/07/24 02:20:10;;;;;;;2.90;2.37;;;;;;;18.57;100.00;99535.13;4985637;28;20201;-69
2023/07/24 02:22:36;;;;;;;6.13;2.40;;;;;;;18.59;100.00;99541.31;4984464;28;20197;-69
2023/07/24 02:25:03;;;;;;;3.00;2.13;;;;;;;18.54;100.00;99551.31;4990553;28;20308;-68
2023/07/24 02:27:31;;;;;;;3.03;2.17;;;;;;;18.46;100.00;99554.25;4991576;28;20593;-68
2023/07/24 02:29:58;;;;;;;2.70;2.10;;;;;;;18.34;100.00;99547.44;4980203;28;20552;-69
2023/07/24 02:32:24;;;;;;;3.07;2.30;;;;;;;18.34;100.00;99550.13;4983592;28;20208;-69
2023/07/24 02:34:52;;;;;;;3.63;2.30;;;;;;;18.30;100.00;99542.25;4987542;28;20225;-69
2023/07/24 02:37:19;;;;;;;3.43;2.40;;;;;;;18.41;100.00;99543.69;4985550;28;20391;-69
2023/07/24 02:39:46;;;;;;;4.27;2.10;;;;;;;18.43;100.00;99538.25;4984467;28;20605;-69
2023/07/24 02:42:12;;;;;;;3.60;2.23;;;;;;;18.33;100.00;99552.88;4986155;28;20208;-69
2023/07/24 02:44:38;;;;;;;4.50;2.57;;;;;;;18.20;100.00;99559.53;4987059;28;20221;-69
2023/07/24 02:47:05;;;;;;;2.90;2.07;;;;;;;17.98;100.00;99570.00;4986457;28;20236;-68
2023/07/24 02:49:32;;;;;;;5.20;2.60;;;;;;;17.77;100.00;99567.06;4996033;28;20201;-69
2023/07/24 02:51:59;;;;;;;4.03;2.20;;;;;;;17.59;100.00;99567.53;4979038;28;20555;-68
2023/07/24 02:54:26;;;;;;;3.13;2.27;;;;;;;17.50;100.00;99566.00;4977212;28;20714;-69
2023/07/24 02:56:53;;;;;;;3.40;1.97;;;;;;;17.54;100.00;99566.78;4981436;28;20220;-69
2023/07/24 02:59:19;;;;;;;3.60;2.43;;;;;;;17.69;100.00;99568.22;4976822;28;20205;-68
2023/07/24 03:01:45;;;;;;;4.40;2.63;;;;;;;17.69;100.00;99565.53;4981902;28;20198;-68
2023/07/24 03:04:12;;;;;;;3.83;2.60;;;;;;;17.66;100.00;99566.47;4982891;28;20224;-69
2023/07/24 03:06:39;;;;;;;4.40;2.60;;;;;;;17.56;100.00;99554.25;4977310;28;20581;-69
2023/07/24 03:09:06;;;;;;;3.87;2.63;;;;;;;17.49;100.00;99532.13;4978186;28;20207;-68
2023/07/24 03:11:32;;;;;;;2.70;1.87;;;;;;;17.49;100.00;99542.84;4978620;28;20200;-68
2023/07/24 03:13:59;;;;;;;3.37;2.30;;;;;;;17.52;100.00;99534.72;4980634;28;20300;-68
2023/07/24 03:16:25;;;;;;;2.67;2.10;;;;;;;17.49;100.00;99533.91;4977249;28;20235;-68
2023/07/24 03:18:52;;;;;;;4.30;2.50;;;;;;;17.37;100.00;99545.88;4978821;28;20216;-68
2023/07/24 03:21:20;;;;;;;3.07;2.00;;;;;;;17.29;100.00;99542.53;4976286;28;20209;-68
2023/07/24 03:23:46;;;;;;;3.53;2.20;;;;;;;17.28;100.00;99527.38;4984031;28;20220;-68
2023/07/24 03:26:13;;;;;;;4.60;2.30;;;;;;;17.35;100.00;99517.38;4982037;28;20239;-69
2023/07/24 03:28:39;;;;;;;3.87;2.10;;;;;;;17.27;100.00;99508.69;4981536;28;20197;-68
2023/07/24 03:31:05;;;;;;;2.93;1.93;;;;;;;17.26;100.00;99501.59;4982155;28;20209;-68
2023/07/24 03:33:32;;;;;;;3.03;2.20;;;;;;;17.19;100.00;99499.06;4981525;28;20260;-68
2023/07/24 03:35:58;;;;;;;2.67;2.00;;;;;;;17.07;100.00;99493.19;4982515;28;20277;-69
2023/07/24 03:38:25;;;;;;;3.97;2.43;;;;;;;16.97;100.00;99489.88;4982171;28;20202;-69
2023/07/24 03:40:51;;;;;;;4.43;2.17;;;;;;;16.93;100.00;99474.84;4983315;28;20225;-69
2023/07/24 03:43:18;;;;;;;4.07;2.30;;;;;;;16.97;100.00;99479.19;4983615;28;20225;-69
2023/07/24 03:45:44;;;;;;;3.80;2.30;;;;;;;17.07;100.00;99458.41;4984147;28;20221;-68
2023/07/24 03:48:11;;;;;;;3.47;2.07;;;;;;;17.23;100.00;99441.00;4980839;28;20223;-68
2023/07/24 03:50:37;;;;;;;5.47;2.50;;;;;;;17.36;100.00;99434.38;4982804;28;20480;-69
2023/07/24 03:53:03;;;;;;;4.60;1.90;;;;;;;17.42;100.00;99427.94;4982723;28;20229;-69
2023/07/24 03:55:30;;;;;;;7.90;2.57;;;;;;;17.59;100.00;99449.72;4985822;28;20209;-68
2023/07/24 03:57:56;;;;;;;3.37;2.30;;;;;;;17.58;100.00;99463.16;4977421;28;20215;-69
2023/07/24 04:00:23;;;;;;;2.50;2.20;;;;;;;17.47;100.00;99476.88;4984429;28;20480;-68
2023/07/24 04:02:49;;;;;;;3.90;2.10;;;;;;;17.38;100.00;99470.00;4986256;28;20200;-68
2023/07/24 04:05:16;;;;;;;2.50;2.13;;;;;;;17.32;100.00;99470.19;4985740;28;20222;-68
2023/07/24 04:07:42;;;;;;;3.47;2.33;;;;;;;17.32;100.00;99469.31;4984094;28;20197;-68
2023/07/24 04:10:09;;;;;;;3.30;2.40;;;;;;;17.33;100.00;99457.66;4985965;28;20219;-68
2023/07/24 04:12:38;;;;;;;2.80;2.23;;;;;;;17.39;100.00;99444.97;4979256;28;20852;-68
2023/07/24 04:15:05;;;;;;;3.20;2.43;;;;;;;17.44;100.00;99453.75;4984270;28;20621;-69
2023/07/24 04:17:32;;;;;;;4.03;2.40;;;;;;;17.55;100.00;99481.06;4983824;28;20208;-68
2023/07/24 04:19:58;;;;;;;3.20;2.13;;;;;;;17.61;100.00;99488.06;4983882;28;20201;-69
2023/07/24 04:22:25;;;;;;;3.43;2.43;;;;;;;17.69;100.00;99487.88;4983344;28;20197;-68
2023/07/24 04:24:51;;;;;;;5.53;2.50;;;;;;;17.84;100.00;99474.88;4985144;28;20264;-68
2023/07/24 04:27:18;;;;;;;3.47;2.40;;;;;;;17.89;100.00;99468.50;5002159;28;20239;-68
2023/07/24 04:29:44;;;;;;;4.77;2.57;;;;;;;17.92;100.00;99487.16;4982211;28;20288;-68
2023/07/24 04:32:11;;;;;;;5.60;2.60;;;;;;;17.95;100.00;99490.63;4982328;28;20207;-69
2023/07/24 04:34:37;;;;;;;4.47;2.80;;;;;;;18.10;100.00;99483.91;5001411;22;20773;-73
2023/07/24 04:37:04;;;;;;;7.43;2.67;;;;;;;18.18;100.00;99489.91;5000637;28;20278;-75
2023/07/24 04:39:30;;;;;;;3.97;2.40;;;;;;;18.24;100.00;99492.38;5002234;28;20207;-75
2023/07/24 04:41:57;;;;;;;4.50;2.90;;;;;;;18.30;100.00;99502.91;5005253;28;20197;-77
2023/07/24 04:44:23;;;;;;;3.97;2.60;;;;;;;18.48;100.00;99502.31;5003601;28;20238;-76
2023/07/24 04:46:50;;;;;;;3.87;2.60;;;;;;;18.63;100.00;99506.31;5005649;28;20224;-74
2023/07/24 04:49:16;;;;;;;7.13;2.50;;;;;;;18.67;100.00;99520.50;5004552;28;20228;-76
2023/07/24 04:51:43;;;;;;;5.07;2.60;;;;;;;18.65;100.00;99517.88;5003523;28;20291;-75
2023/07/24 04:54:09;;;;;;;6.27;2.67;;;;;;;18.59;100.00;99493.91;5003017;28;20212;-76
2023/07/24 04:56:36;;;;;;;7.27;2.57;;;;;;;18.61;100.00;99502.78;5005764;28;20192;-75
2023/07/24 04:59:02;;;;;;;5.67;2.73;;;;;;;18.70;100.00;99501.63;5007739;28;20204;-75
2023/07/24 05:01:29;;;;;;;7.93;2.47;;;;;;;18.72;100.00;99495.28;5010845;28;20196;-75
2023/07/24 05:03:55;;;;;;;6.90;2.97;;;;;;;18.79;100.00;99510.22;5011157;28;20583;-74
2023/07/24 05:06:21;;;;;;;3.97;2.67;;;;;;;18.84;100.00;99522.63;5008324;28;20895;-75
2023/07/24 05:08:48;;;;;;;9.30;2.80;;;;;;;18.88;100.00;99525.16;5009030;28;20536;-75
2023/07/24 05:11:14;;;;;;;9.27;2.70;;;;;;;18.91;100.00;99526.84;5008473;28;20200;-75
2023/07/24 05:13:41;;;;;;;9.10;2.80;;;;;;;18.86;100.00;99524.34;5003363;28;20219;-76
2023/07/24 05:16:07;;;;;;;9.70;3.10;;;;;;;18.86;100.00;99523.47;5012727;28;20228;-75
2023/07/24 05:18:33;;;;;;;13.70;3.93;;;;;;;18.94;100.00;99516.03;5006817;28;20204;-75
2023/07/24 05:21:00;;;;;;;8.30;2.53;;;;;;;18.92;100.00;99512.50;5007861;28;20587;-75
2023/07/24 05:23:26;;;;;;;10.83;3.57;;;;;;;18.95;100.00;99496.31;5011049;28;20201;-77
2023/07/24 05:26:00;;;;;;;7.97;3.63;;;;;;;19.03;100.00;99494.22;5018695;28;20224;-75
2023/07/24 05:28:28;;;;;;;12.73;2.60;;;;;;;19.05;100.00;99484.31;5006835;28;20200;-75
2023/07/24 05:30:54;;;;;;;6.20;2.77;;;;;;;19.07;100.00;99496.75;5004951;28;20208;-73
2023/07/24 05:33:21;;;;;;;7.37;2.40;;;;;;;19.08;100.00;99495.81;4999851;28;20197;-74
2023/07/24 05:35:50;;;;;;;10.53;2.77;;;;;;;19.09;100.00;99500.25;5009141;28;20227;-75
2023/07/24 05:38:17;;;;;;;6.43;2.93;;;;;;;19.20;100.00;99510.59;5007262;28;20283;-73
2023/07/24 05:40:43;;;;;;;11.23;2.43;;;;;;;19.31;100.00;99495.00;5007061;28;20283;-74
2023/07/24 05:43:10;;;;;;;4.27;2.70;;;;;;;19.39;100.00;99495.59;5007927;28;20196;-74
2023/07/24 05:45:36;;;;;;;5.17;2.73;;;;;;;19.39;100.00;99494.72;5010262;28;20220;-75
2023/07/24 05:48:02;;;;;;;6.67;2.60;;;;;;;19.47;100.00;99503.34;5008382;28;20201;-73
2023/07/24 05:50:29;;;;;;;6.63;2.40;;;;;;;19.54;100.00;99501.34;5009080;28;20587;-74
2023/07/24 05:52:55;;;;;;;4.10;2.67;;;;;;;19.56;100.00;99486.91;4997161;28;20207;-73
2023/07/24 05:55:22;;;;;;;4.03;2.47;;;;;;;19.54;100.00;99490.59;5006891;28;20220;-73
2023/07/24 05:57:48;;;;;;;3.13;2.23;;;;;;;19.54;100.00;99490.59;5005712;28;20204;-73
2023/07/24 06:00:15;;;;;;;3.70;2.77;;;;;;;19.56;100.00;99496.78;4997207;28;20688;-71
2023/07/24 06:02:41;;;;;;;4.47;2.57;;;;;;;19.59;100.00;99493.97;5009262;28;20203;-75
2023/07/24 06:05:08;;;;;;;4.35;2.53;;;;;;;19.60;100.00;99493.91;5003110;28;20220;-73
2023/07/24 06:07:34;;;;;;;9.73;2.97;;;;;;;19.68;100.00;99490.97;5004986;28;20216;-72
2023/07/24 06:10:00;;;;;;;4.75;2.38;;;;;;;19.82;100.00;99493.13;5006222;28;20206;-72
2023/07/24 06:12:27;;;;;;;6.80;2.83;;;;;;;19.98;100.00;99495.13;5005735;28;20200;-72
2023/07/24 06:14:53;;;;;;;7.60;2.75;;;;;;;20.16;100.00;99487.28;5008154;28;20224;-72
2023/07/24 06:17:19;;;;;;;7.45;2.97;;;;;;;20.37;100.00;99485.53;5008648;28;20202;-72
2023/07/24 06:19:46;;;;;;;5.10;2.60;;;;;;;20.58;100.00;99474.81;5003935;28;20203;-74
2023/07/24 06:22:12;;;;;;;3.78;2.63;;;;;;;20.78;99.17;99481.16;5010119;28;20296;-72
2023/07/24 06:24:39;;;;;;;4.88;2.70;;;;;;;20.99;94.11;99487.44;5009716;28;20662;-73
2023/07/24 06:27:06;;;;;;;6.22;3.10;;;;;;;21.18;90.89;99469.50;5009957;28;20224;-74
2023/07/24 06:29:33;;;;;;;3.88;2.95;;;;;;;21.43;90.52;99472.91;5008633;28;20231;-73
2023/07/24 06:31:59;;;;;;;4.68;2.75;;;;;;;21.61;87.40;99478.38;5008419;28;20656;-73
2023/07/24 06:34:26;;;;;;;5.55;2.55;;;;;;;21.82;85.82;99478.25;5009282;28;20228;-71
2023/07/24 06:36:52;;;;;;;5.50;2.60;;;;;;;21.99;84.13;99484.66;5005315;28;20200;-73
2023/07/24 06:39:18;;;;;;;4.03;2.60;;;;;;;22.09;81.98;99483.34;5007445;28;20289;-74
2023/07/24 06:41:45;;;;;;;3.80;2.60;;;;;;;22.31;80.12;99484.00;5008410;28;20577;-73
2023/07/24 06:44:11;;;;;;;4.90;2.58;;;;;;;22.34;78.86;99485.69;5008554;28;20219;-74
2023/07/24 06:46:38;;;;;;;4.05;2.58;;;;;;;22.53;78.49;99483.84;5007007;28;20213;-74
2023/07/24 06:49:04;;;;;;;7.20;2.72;;;;;;;23.03;75.41;99475.88;5007821;28;20204;-73
2023/07/24 06:51:30;;;;;;;7.95;2.75;;;;;;;23.27;72.32;99460.22;5008323;28;20634;-74
2023/07/24 06:53:57;;;;;;;6.18;2.50;;;;;;;23.48;70.43;99479.81;5007443;28;20196;-74
2023/07/24 06:56:23;;;;;;;4.18;2.40;;;;;;;23.60;68.98;99479.16;5007209;28;20208;-74
2023/07/24 06:58:49;;;;;;;5.97;2.70;;;;;;;24.02;67.14;99467.81;5007168;28;20687;-76
2023/07/24 07:01:16;;;;;;;4.90;2.83;;;;;;;24.38;64.79;99448.59;5006589;28;20200;-75
2023/07/24 07:03:42;;;;;;;3.35;2.10;;;;;;;24.95;62.86;99473.22;5008907;28;20235;-76
2023/07/24 07:06:10;;;;;;;3.90;2.70;;;;;;;25.25;60.79;99477.78;5010667;28;20226;-76
2023/07/24 07:08:53;;;;;;;4.47;2.28;;;;;;;25.11;61.49;99477.72;5005920;28;20283;-77
2023/07/24 07:11:20;;;;;;;3.63;2.50;;;;;;;25.20;61.92;99485.28;5005110;28;20283;-74
2023/07/24 07:13:46;;;;;;;3.63;2.40;;;;;;;25.07;62.38;99487.88;5008716;28;20223;-73
2023/07/24 07:16:13;;;;;;;3.95;2.60;;;;;;;25.17;61.90;99485.47;5006120;28;20220;-74
2023/07/24 07:18:39;;;;;;;6.13;2.60;;;;;;;25.22;61.35;99484.25;5001422;28;20859;-75
2023/07/24 07:21:06;;;;;;;5.68;2.40;;;;;;;25.28;60.83;99502.00;5007380;28;20298;-72
2023/07/24 07:23:32;;;;;;;4.32;2.30;;;;;;;25.06;62.13;99501.53;5008135;28;20192;-73
2023/07/24 07:25:59;;;;;;;3.53;2.55;;;;;;;24.74;63.17;99498.84;5003954;28;20220;-71
2023/07/24 07:28:25;;;;;;;4.75;2.00;;;;;;;24.32;64.80;99488.69;5005493;28;20568;-72
2023/07/24 07:30:53;;;;;;;3.53;2.50;;;;;;;24.14;64.99;99474.38;5005839;28;20196;-74
2023/07/24 07:33:23;;;;;;;4.32;2.40;;;;;;;23.97;66.09;99475.28;5006930;28;20596;-73
2023/07/24 07:35:50;;;;;;;6.18;2.58;;;;;;;23.89;66.94;99469.44;5000355;28;20243;-74
2023/07/24 07:38:16;;;;;;;3.72;1.92;;;;;;;23.62;68.27;99471.88;4999315;28;20192;-73
2023/07/24 07:40:42;;;;;;;3.83;2.38;;;;;;;23.65;68.24;99452.78;5006462;28;20200;-71
2023/07/24 07:43:09;;;;;;;6.15;2.78;;;;;;;23.58;69.36;99459.44;5004289;28;20211;-74
2023/07/24 07:45:35;;;;;;;7.75;2.60;;;;;;;23.41;68.97;99464.88;5006880;28;20220;-74
2023/07/24 07:48:04;;;;;;;4.72;2.60;;;;;;;23.45;69.49;99466.44;5005811;28;20545;-74
2023/07/24 07:50:32;;;;;;;5.82;2.83;;;;;;;23.55;69.87;99466.81;5007162;28;20196;-75
2023/07/24 07:52:58;;;;;;;5.53;2.60;;;;;;;23.54;69.95;99457.84;5003181;28;20196;-74
2023/07/24 07:55:24;;;;;;;4.57;2.63;;;;;;;23.64;69.47;99455.56;5005497;28;20224;-74
2023/07/24 07:57:51;;;;;;;8.13;2.67;;;;;;;23.60;69.85;99451.25;5008520;28;20592;-74
2023/07/24 08:00:17;;;;;;;4.60;2.63;;;;;;;23.71;67.67;99440.75;5008086;28;20206;-73
2023/07/24 08:02:44;;;;;;;3.67;2.30;;;;;;;23.75;68.58;99447.72;5003265;28;20222;-73
2023/07/24 08:05:11;;;;;;;6.78;2.83;;;;;;;23.80;67.92;99444.75;5001284;28;20227;-73
2023/07/24 08:07:46;;;;;;;4.30;2.60;;;;;;;23.73;67.03;99437.00;5002600;28;20219;-72
2023/07/24 08:10:14;;;;;;;4.38;2.55;;;;;;;23.68;68.96;99427.41;5006234;28;20210;-74
2023/07/24 08:12:42;;;;;;;4.75;2.75;;;;;;;23.88;68.03;99428.97;5007013;28;20243;-75
2023/07/24 08:15:09;;;;;;;5.13;2.92;;;;;;;24.13;68.27;99428.47;5007431;28;20216;-72
2023/07/24 08:17:36;;;;;;;4.65;2.88;;;;;;;24.36;66.70;99428.00;5003500;28;20283;-75
2023/07/24 08:20:03;;;;;;;4.70;2.78;;;;;;;24.77;64.77;99439.09;5004402;28;20203;-74
2023/07/24 08:22:29;;;;;;;3.47;2.42;;;;;;;25.12;63.41;99428.84;5006223;28;20258;-75
2023/07/24 08:24:56;;;;;;;4.90;2.92;;;;;;;25.38;62.09;99420.97;5004781;28;20216;-75
2023/07/24 08:27:22;;;;;;;5.35;2.40;;;;;;;25.75;60.12;99419.53;5002698;28;20631;-74
2023/07/24 08:29:52;;;;;;;6.72;2.97;;;;;;;25.94;59.12;99422.78;5008844;28;20635;-73
2023/07/24 08:32:19;;;;;;;5.35;2.70;;;;;;;26.55;57.69;99424.19;5010708;28;20204;-73
2023/07/24 08:34:46;;;;;;;6.30;2.50;;;;;;;27.14;55.61;99424.63;5011970;28;20261;-74
2023/07/24 08:37:12;;;;;;;4.63;2.80;;;;;;;27.61;54.19;99415.84;5010041;28;20230;-74
2023/07/24 08:39:39;;;;;;;8.80;3.03;;;;;;;27.65;53.93;99413.78;5013156;28;20635;-72
2023/07/24 08:42:12;;;;;;;4.22;3.30;;;;;;;27.97;52.70;99419.59;5010465;28;20295;-74
2023/07/24 08:44:39;;;;;;;4.03;2.60;;;;;;;28.13;51.58;99411.16;5005457;28;20223;-76
2023/07/24 08:47:09;;;;;;;3.90;2.58;;;;;;;27.64;51.89;99414.78;5008608;28;20232;-78
2023/07/24 08:49:38;;;;;;;4.03;2.70;;;;;;;27.41;52.13;99413.66;5004765;28;20673;-76
2023/07/24 08:52:05;;;;;;;3.83;3.13;;;;;;;27.61;51.84;99424.00;5007685;28;20196;-75
2023/07/24 08:54:35;;;;;;;6.63;3.13;;;;;;;27.81;51.64;99418.97;5006955;28;20311;-72
2023/07/24 08:57:02;;;;;;;3.10;2.63;;;;;;;28.34;50.40;99415.88;5008335;28;20283;-72
2023/07/24 08:59:29;;;;;;;5.43;2.72;;;;;;;28.07;50.85;99413.38;5010447;28;20672;-71
2023/07/24 09:01:56;;;;;;;7.35;2.85;;;;;;;27.92;51.06;99403.59;5009635;28;20425;-71
2023/07/24 09:04:24;;;;;;;6.25;2.70;;;;;;;28.28;49.99;99397.28;5018679;28;20199;-74
2023/07/24 09:06:51;;;;;;;4.07;2.72;;;;;;;28.35;49.70;99397.69;5016523;28;20723;-74
2023/07/24 09:09:17;;;;;;;3.15;2.42;;;;;;;27.47;50.83;99392.34;5025058;28;20206;-74
2023/07/24 09:11:52;;;;;;;3.92;2.60;;;;;;;27.16;52.38;99398.22;5010088;28;20222;-73
2023/07/24 09:14:23;;;;;;;3.13;2.30;;;;;;;26.98;53.10;99392.25;5008846;28;20199;-72
2023/07/24 09:16:52;;;;;;;4.35;2.67;;;;;;;26.64;53.67;99380.09;5003010;28;20223;-71
2023/07/24 09:19:19;;;;;;;6.15;2.55;;;;;;;26.56;53.86;99381.59;5006674;28;20274;-75
2023/07/24 09:21:52;;;;;;;71.53;11.23;;;;;;;26.60;54.25;99381.28;5006004;28;20698;-71
2023/07/24 09:24:18;;;;;;;9.57;3.33;;;;;;;26.80;53.84;99377.16;5010274;28;20216;-74
2023/07/24 09:26:49;;;;;;;5.38;2.47;;;;;;;27.17;52.92;99362.75;5009370;28;20223;-74
2023/07/24 09:29:16;;;;;;;3.78;2.60;;;;;;;27.47;51.35;99356.09;5004444;28;20203;-73
2023/07/24 09:31:43;;;;;;;6.97;2.67;;;;;;;27.98;49.80;99340.53;5009492;28;20200;-72
2023/07/24 09:34:17;;;;;;;5.13;2.47;;;;;;;28.32;48.18;99332.56;5008702;28;20238;-73
2023/07/24 09:36:44;;;;;;;3.75;2.47;;;;;;;28.67;47.16;99336.16;5011806;28;20653;-72
2023/07/24 09:39:11;;;;;;;3.75;2.50;;;;;;;28.87;46.20;99341.97;5013327;28;20588;-74
2023/07/24 09:41:39;;;;;;;4.00;2.40;;;;;;;28.87;46.76;99344.69;5005740;28;20193;-71
2023/07/24 09:44:07;;;;;;;3.65;2.65;;;;;;;28.97;46.35;99343.81;5007457;28;20212;-74
2023/07/24 09:46:33;;;;;;;8.52;2.88;;;;;;;28.80;46.55;99343.38;5007049;28;20219;-74
2023/07/24 09:49:13;;;;;;;4.60;2.42;;;;;;;28.62;45.02;99330.19;5006958;28;20203;-75
2023/07/24 09:51:47;;;;;;;17.35;3.58;;;;;;;28.53;45.29;99322.75;5008784;28;20295;-74
2023/07/24 09:54:26;;;;;;;10.48;2.90;;;;;;;28.63;45.27;99317.44;5005579;28;20199;-74
2023/07/24 09:56:54;;;;;;;6.22;2.40;;;;;;;28.57;45.93;99321.53;5006777;28;20188;-71
2023/07/24 09:59:32;;;;;;;11.70;3.10;;;;;;;28.82;45.31;99336.84;5009219;28;20200;-73
2023/07/24 10:01:59;;;;;;;3.92;2.78;;;;;;;28.73;45.49;99339.38;5010077;28;20200;-73
2023/07/24 10:04:26;;;;;;;6.05;2.60;;;;;;;28.74;45.64;99354.75;5008549;28;20223;-73
2023/07/24 10:06:53;;;;;;;7.05;2.70;;;;;;;28.49;46.25;99348.50;5007237;28;20219;-71
2023/07/24 10:09:22;;;;;;;6.60;3.00;;;;;;;28.65;46.41;99351.75;5006634;28;20202;-74
2023/07/24 10:11:49;;;;;;;4.40;3.00;;;;;;;29.06;44.86;99350.41;5008774;28;20200;-74
2023/07/24 10:14:16;;;;;;;4.95;2.70;;;;;;;28.92;44.02;99365.13;5009843;28;20197;-75
2023/07/24 10:16:45;;;;;;;5.25;3.10;;;;;;;29.00;44.17;99361.78;5005938;28;20695;-72
2023/07/24 10:19:18;;;;;;;4.22;3.22;;;;;;;28.74;43.87;99362.94;5009138;28;20739;-76
2023/07/24 10:21:46;;;;;;;5.30;3.10;;;;;;;28.54;42.92;99369.94;5007776;28;20211;-73
2023/07/24 10:24:13;;;;;;;4.50;3.17;;;;;;;28.68;43.32;99362.41;5007422;28;20644;-73
2023/07/24 10:26:56;;;;;;;4.35;3.20;;;;;;;28.47;43.28;99347.75;5008921;28;20237;-74
2023/07/24 10:29:28;;;;;;;28.60;6.85;;;;;;;28.61;43.34;99350.25;5010332;28;20349;-73
2023/07/24 10:31:55;;;;;;;7.85;3.80;;;;;;;28.59;41.56;99354.97;5003490;28;20200;-76
2023/07/24 10:34:21;;;;;;;12.13;4.47;;;;;;;28.85;41.02;99346.66;5009210;28;20192;-76
2023/07/24 10:36:48;;;;;;;9.18;3.88;;;;;;;28.53;40.35;99346.41;5031182;22;20257;-67
2023/07/24 10:39:17;;;;;;;4.55;3.45;;;;;;;28.61;40.29;99361.16;5009696;28;20196;-68
2023/07/24 10:41:44;;;;;;;4.93;3.58;;;;;;;28.81;40.35;99359.59;5012445;28;20607;-68
2023/07/24 10:44:11;;;;;;;5.32;3.40;;;;;;;28.91;39.53;99351.63;5011510;28;20223;-68
2023/07/24 10:46:40;;;;;;;28.08;7.15;;;;;;;29.11;39.14;99358.22;5024919;28;20418;-68
2023/07/24 10:49:08;;;;;;;26.63;6.80;;;;;;;29.17;39.73;99358.59;5029022;28;20203;-70
2023/07/24 10:51:37;;;;;;;44.72;8.05;;;;;;;29.59;38.97;99347.94;5030229;28;20192;-69
2023/07/24 10:54:05;;;;;;;6.18;3.60;;;;;;;29.27;39.06;99354.16;5027994;28;20191;-68
2023/07/24 10:56:32;;;;;;;34.38;9.27;;;;;;;29.44;39.95;99349.22;5025129;28;20216;-69
2023/07/24 10:59:05;;;;;;;6.25;3.72;;;;;;;29.47;40.53;99354.41;5029334;28;20242;-70
2023/07/24 11:01:32;;;;;;;5.97;3.88;;;;;;;29.50;40.61;99349.59;5029036;28;20240;-67
2023/07/24 11:04:00;;;;;;;16.98;4.47;;;;;;;29.48;40.58;99340.66;5026617;28;20204;-71
2023/07/24 11:06:27;;;;;;;10.48;4.95;;;;;;;29.44;41.54;99339.16;5023818;28;20231;-70
2023/07/24 11:08:56;;;;;;;6.10;3.88;;;;;;;29.21;42.35;99331.94;5031953;28;20198;-69
2023/07/24 11:11:32;;;;;;;6.40;3.55;;;;;;;28.94;43.57;99340.47;5026435;28;20660;-68
2023/07/24 11:14:02;;;;;;;5.70;3.53;;;;;;;28.98;43.87;99325.59;5024398;28;20732;-68
2023/07/24 11:16:31;;;;;;;5.75;3.70;;;;;;;28.94;43.82;99330.44;5029386;28;20227;-68
2023/07/24 11:18:57;;;;;;;7.35;3.30;;;;;;;28.83;44.62;99337.69;5029341;28;20273;-69
2023/07/24 11:21:24;;;;;;;5.07;3.47;;;;;;;28.63;45.14;99333.78;5026005;28;20195;-68
2023/07/24 11:23:53;;;;;;;6.57;3.50;;;;;;;28.79;45.38;99317.09;5034438;28;20195;-69
2023/07/24 11:26:21;;;;;;;8.00;3.70;;;;;;;28.84;45.16;99321.25;5028821;28;20306;-68
2023/07/24 11:28:51;;;;;;;5.00;3.60;;;;;;;28.45;45.74;99327.06;5031078;28;20234;-68
2023/07/24 11:31:21;;;;;;;7.85;3.70;;;;;;;28.23;45.32;99306.00;5029157;28;20223;-68